Time;durP1;ratioP1;P1;durP2;ratioP2;P2;SDS_P1;SDS_P2;PMS_P1;PMS_P2;Temp;Humidity;BMP_temperature;BMP_pressure;BME280_temperature;BME280_humidity;BME280_pressure;Samples;Min_cycle;Max_cycle;Signal;HPM_P1;HPM_P2
2023/06/09 00:02:09;;;;;;;8.85;7.15;;;24.20;68.00;;;;;;6207955;28;80309;-64
2023/06/09 00:05:10;;;;;;;10.20;7.28;;;24.20;68.20;;;;;;6208608;28;80731;-64
2023/06/09 00:08:11;;;;;;;10.35;7.13;;;24.20;68.20;;;;;;6207778;28;80516;-63
2023/06/09 00:11:12;;;;;;;9.95;7.30;;;24.20;68.30;;;;;;6205897;28;80990;-62
2023/06/09 00:14:13;;;;;;;8.82;7.13;;;24.20;68.10;;;;;;6207228;28;81368;-62
2023/06/09 00:17:13;;;;;;;10.02;7.90;;;24.10;68.30;;;;;;6206473;28;80923;-62
2023/06/09 00:20:14;;;;;;;10.60;7.75;;;24.10;68.20;;;;;;6205890;28;80381;-62
2023/06/09 00:23:15;;;;;;;10.98;8.23;;;24.20;68.20;;;;;;6205132;28;81858;-61
2023/06/09 00:26:15;;;;;;;9.25;8.07;;;24.10;68.30;;;;;;6189785;28;81432;-61
2023/06/09 00:29:17;;;;;;;8.23;7.10;;;24.20;68.30;;;;;;6197672;28;80783;-61
2023/06/09 00:32:17;;;;;;;9.20;7.07;;;24.10;68.20;;;;;;6188309;28;83286;-62
2023/06/09 00:35:18;;;;;;;10.02;8.10;;;24.20;68.20;;;;;;6202956;28;80453;-62
2023/06/09 00:38:18;;;;;;;10.02;8.15;;;24.20;68.20;;;;;;6201826;28;81026;-61
2023/06/09 00:41:19;;;;;;;11.77;8.80;;;24.10;68.20;;;;;;6202692;28;86575;-61
2023/06/09 00:44:19;;;;;;;11.98;8.85;;;24.10;68.20;;;;;;6195425;28;81041;-61
2023/06/09 00:47:20;;;;;;;10.63;8.50;;;24.10;68.20;;;;;;6203692;28;81464;-59
2023/06/09 00:50:20;;;;;;;10.70;8.65;;;24.10;68.20;;;;;;6185033;28;83765;-61
2023/06/09 00:53:21;;;;;;;9.73;8.23;;;24.10;68.40;;;;;;6202376;28;81721;-61
2023/06/09 00:56:25;;;;;;;9.82;7.82;;;24.10;68.40;;;;;;6202218;28;80549;-61
2023/06/09 00:59:25;;;;;;;10.57;8.52;;;24.10;68.40;;;;;;6201398;28;84968;-61
2023/06/09 01:02:27;;;;;;;11.02;9.20;;;24.10;68.40;;;;;;6203785;28;82042;-61
2023/06/09 01:05:28;;;;;;;11.10;8.48;;;24.10;68.20;;;;;;6185320;28;82905;-61
2023/06/09 01:08:29;;;;;;;13.75;9.82;;;24.10;68.30;;;;;;6202484;28;79989;-57
2023/06/09 01:11:30;;;;;;;10.73;8.82;;;24.10;68.30;;;;;;6200781;28;80996;-57
2023/06/09 01:14:31;;;;;;;12.27;8.85;;;24.10;68.30;;;;;;6184600;28;83475;-58
2023/06/09 01:17:32;;;;;;;11.88;9.35;;;24.10;68.50;;;;;;6200922;28;81673;-58
2023/06/09 01:20:33;;;;;;;13.20;9.95;;;24.10;68.50;;;;;;6201294;28;80228;-58
2023/06/09 01:23:33;;;;;;;11.82;10.05;;;24.10;68.40;;;;;;6191829;28;81799;-58
2023/06/09 01:26:38;;;;;;;13.35;9.88;;;24.10;68.50;;;;;;6182112;28;83042;-58
2023/06/09 01:29:40;;;;;;;15.02;10.88;;;24.10;68.50;;;;;;6190070;28;82163;-59
2023/06/09 01:32:41;;;;;;;12.50;9.63;;;24.10;68.40;;;;;;6167358;28;83787;-59
2023/06/09 01:35:41;;;;;;;14.73;10.85;;;24.10;68.30;;;;;;6191854;28;82914;-60
2023/06/09 01:38:42;;;;;;;13.93;10.85;;;24.10;68.50;;;;;;6169703;28;82892;-59
2023/06/09 01:41:42;;;;;;;13.73;10.38;;;24.10;68.50;;;;;;6176533;28;85754;-58
2023/06/09 01:44:43;;;;;;;15.18;11.07;;;24.10;68.40;;;;;;6180828;28;85470;-58
2023/06/09 01:47:44;;;;;;;13.45;10.52;;;24.10;68.50;;;;;;6176462;28;85490;-60
2023/06/09 01:50:44;;;;;;;13.23;10.15;;;24.10;68.50;;;;;;6176934;28;83305;-60
2023/06/09 01:53:45;;;;;;;14.57;10.48;;;24.10;68.40;;;;;;6177154;28;83452;-60
2023/06/09 01:56:46;;;;;;;13.18;10.95;;;24.10;68.50;;;;;;6177210;28;85932;-60
2023/06/09 01:59:46;;;;;;;15.05;11.43;;;24.10;68.50;;;;;;6178489;28;86092;-60
2023/06/09 02:02:47;;;;;;;14.23;12.05;;;24.10;68.50;;;;;;6159341;28;85855;-60
2023/06/09 02:05:48;;;;;;;13.85;11.15;;;24.10;68.50;;;;;;6184994;28;84506;-60
2023/06/09 02:08:48;;;;;;;16.45;12.05;;;24.10;68.70;;;;;;6185777;28;83902;-58
2023/06/09 02:11:51;;;;;;;14.60;11.45;;;24.10;68.60;;;;;;6184381;28;85237;-60
2023/06/09 02:14:52;;;;;;;17.85;12.00;;;24.10;68.50;;;;;;6162666;28;85818;-58
2023/06/09 02:17:52;;;;;;;17.15;11.82;;;24.10;68.60;;;;;;6175988;28;85179;-60
2023/06/09 02:20:53;;;;;;;16.55;12.00;;;24.10;68.60;;;;;;6190529;28;85796;-58
2023/06/09 02:23:53;;;;;;;16.58;12.57;;;24.10;68.60;;;;;;6182757;28;87997;-60
2023/06/09 02:26:54;;;;;;;14.35;11.32;;;24.10;68.70;;;;;;6197315;28;90512;-57
2023/06/09 02:29:55;;;;;;;14.40;11.77;;;24.10;68.70;;;;;;6198885;28;85335;-58
2023/06/09 02:32:55;;;;;;;14.82;11.68;;;24.10;68.70;;;;;;6198588;28;83319;-60
2023/06/09 02:35:56;;;;;;;15.75;12.20;;;24.10;68.70;;;;;;6169259;28;85815;-60
2023/06/09 02:38:56;;;;;;;17.13;13.02;;;24.10;68.70;;;;;;6194615;28;83703;-59
2023/06/09 02:41:57;;;;;;;14.52;11.13;;;24.10;68.80;;;;;;6163830;28;84153;-61
2023/06/09 02:44:57;;;;;;;15.40;11.88;;;24.10;68.70;;;;;;6183015;28;86065;-60
2023/06/09 02:47:58;;;;;;;14.27;11.40;;;24.10;68.80;;;;;;6174539;28;85719;-58
2023/06/09 02:50:59;;;;;;;15.77;12.13;;;24.10;68.80;;;;;;6172966;28;88717;-59
2023/06/09 02:54:00;;;;;;;15.05;11.93;;;24.10;68.80;;;;;;6180221;28;86897;-60
2023/06/09 02:57:01;;;;;;;13.77;10.65;;;24.10;68.70;;;;;;6185525;28;85543;-60
2023/06/09 03:00:04;;;;;;;13.93;11.82;;;24.10;68.70;;;;;;6179043;28;85435;-59
2023/06/09 03:03:06;;;;;;;13.23;10.68;;;24.10;68.80;;;;;;6187968;28;87446;-59
2023/06/09 03:06:08;;;;;;;15.38;12.00;;;24.10;68.80;;;;;;6170740;28;85607;-60
2023/06/09 03:09:12;;;;;;;13.43;11.35;;;24.10;68.80;;;;;;6179045;28;85384;-60
2023/06/09 03:12:14;;;;;;;12.55;11.02;;;24.00;68.80;;;;;;6176374;28;84991;-64
2023/06/09 03:15:15;;;;;;;13.38;10.52;;;24.10;68.90;;;;;;6194924;28;86152;-62
2023/06/09 03:18:18;;;;;;;14.68;11.13;;;24.10;68.70;;;;;;6175566;28;85935;-61
2023/06/09 03:21:24;;;;;;;21.13;12.50;;;24.10;68.80;;;;;;6180600;28;85663;-59
2023/06/09 03:24:25;;;;;;;12.80;10.27;;;24.10;68.80;;;;;;6178819;28;83122;-58
2023/06/09 03:27:26;;;;;;;12.55;10.50;;;24.00;68.80;;;;;;6190085;28;85759;-58
2023/06/09 03:30:26;;;;;;;13.93;10.45;;;24.00;68.80;;;;;;6174902;28;84332;-59
2023/06/09 03:33:27;;;;;;;14.23;11.00;;;24.00;68.70;;;;;;6176772;28;85746;-60
2023/06/09 03:36:29;;;;;;;14.20;10.23;;;24.00;68.80;;;;;;6177690;28;85784;-59
2023/06/09 03:39:30;;;;;;;10.45;9.23;;;24.00;68.70;;;;;;6195974;28;83836;-61
2023/06/09 03:42:32;;;;;;;12.65;10.27;;;24.00;68.60;;;;;;6184339;28;85963;-58
2023/06/09 03:45:34;;;;;;;12.82;10.43;;;24.00;68.50;;;;;;6171306;28;82866;-59
2023/06/09 03:48:35;;;;;;;13.23;10.52;;;24.00;68.60;;;;;;6178163;28;86164;-58
2023/06/09 03:51:36;;;;;;;13.93;9.77;;;24.00;68.50;;;;;;6193175;28;84729;-61
2023/06/09 03:54:37;;;;;;;15.57;11.23;;;24.00;68.60;;;;;;6198786;28;81746;-66
2023/06/09 03:57:37;;;;;;;19.33;12.70;;;24.10;69.10;;;;;;6171287;28;83168;-68
2023/06/09 04:00:39;;;;;;;17.33;10.30;;;24.10;68.40;;;;;;6180364;28;85502;-69
2023/06/09 04:03:40;;;;;;;14.15;11.20;;;24.10;68.20;;;;;;6182025;28;85994;-67
2023/06/09 04:06:45;;;;;;;15.27;10.52;;;24.00;68.30;;;;;;6196279;28;82893;-68
2023/06/09 04:09:46;;;;;;;14.38;10.60;;;24.00;68.30;;;;;;6187648;28;86179;-67
2023/06/09 04:12:47;;;;;;;16.23;10.48;;;24.10;68.50;;;;;;6181643;28;85708;-67
2023/06/09 04:15:47;;;;;;;16.08;10.82;;;24.10;68.40;;;;;;6190174;28;85771;-70
2023/06/09 04:18:49;;;;;;;12.15;9.70;;;24.00;68.30;;;;;;6183060;28;86002;-67
2023/06/09 04:21:50;;;;;;;12.77;9.88;;;24.10;68.50;;;;;;6204742;28;81715;-68
2023/06/09 04:24:50;;;;;;;20.52;11.30;;;24.10;68.60;;;;;;6202926;28;82530;-69
2023/06/09 04:27:51;;;;;;;18.13;11.32;;;24.10;69.20;;;;;;6162900;28;83450;-67
2023/06/09 04:30:52;;;;;;;18.08;11.23;;;24.10;69.20;;;;;;6185981;28;85467;-66
2023/06/09 04:33:55;;;;;;;18.23;11.00;;;24.10;69.20;;;;;;6165922;28;85860;-66
2023/06/09 04:36:56;;;;;;;16.92;11.13;;;24.10;69.50;;;;;;6172000;28;85093;-66
2023/06/09 04:39:58;;;;;;;14.25;10.90;;;24.10;69.40;;;;;;6182125;28;86109;-66
2023/06/09 04:42:59;;;;;;;15.20;10.85;;;24.10;69.90;;;;;;6176705;28;85810;-65
2023/06/09 04:46:05;;;;;;;15.40;11.38;;;24.10;69.80;;;;;;6188486;28;84895;-65
2023/06/09 04:49:08;;;;;;;13.93;10.20;;;24.10;69.90;;;;;;6195984;28;84716;-70
2023/06/09 04:52:10;;;;;;;13.63;10.48;;;24.10;70.50;;;;;;6188859;28;85636;-63
2023/06/09 04:55:14;;;;;;;19.35;11.18;;;24.10;70.90;;;;;;6164515;28;86096;-66
2023/06/09 04:58:15;;;;;;;23.48;10.43;;;24.10;70.90;;;;;;6165533;28;86185;-67
2023/06/09 05:01:16;;;;;;;20.73;10.30;;;24.10;70.40;;;;;;6183450;28;85693;-62
2023/06/09 05:04:20;;;;;;;20.67;10.40;;;24.20;70.60;;;;;;6173916;28;84795;-62
2023/06/09 05:07:21;;;;;;;18.75;11.18;;;24.20;70.80;;;;;;6176358;28;85941;-64
2023/06/09 05:10:21;;;;;;;18.45;11.18;;;24.20;70.90;;;;;;6172706;28;84691;-63
2023/06/09 05:13:22;;;;;;;22.98;11.40;;;24.20;70.70;;;;;;6189150;28;85075;-62
2023/06/09 05:16:25;;;;;;;21.00;11.50;;;24.10;70.60;;;;;;6191216;28;82879;-63
2023/06/09 05:19:27;;;;;;;22.30;11.23;;;24.20;70.60;;;;;;6170435;28;86034;-64
2023/06/09 05:22:28;;;;;;;20.92;11.38;;;24.20;70.60;;;;;;6182475;28;84017;-65
2023/06/09 05:25:28;;;;;;;20.02;12.07;;;24.20;70.60;;;;;;6174941;28;85901;-67
2023/06/09 05:28:29;;;;;;;16.55;12.10;;;24.20;70.50;;;;;;6171630;28;85758;-62
2023/06/09 05:31:31;;;;;;;22.48;12.05;;;24.20;70.80;;;;;;6180936;28;83270;-63
2023/06/09 05:34:32;;;;;;;20.48;11.68;;;24.20;70.90;;;;;;6179094;28;85759;-62
2023/06/09 05:37:33;;;;;;;16.23;11.82;;;24.20;70.50;;;;;;6171989;28;84739;-63
2023/06/09 05:40:33;;;;;;;19.83;12.50;;;24.20;70.90;;;;;;6166169;28;85813;-62
2023/06/09 05:43:34;;;;;;;16.98;12.45;;;24.10;70.80;;;;;;6188510;28;83648;-60
2023/06/09 05:46:35;;;;;;;15.40;11.40;;;24.20;70.30;;;;;;6183957;28;85139;-63
2023/06/09 05:49:35;;;;;;;19.73;12.52;;;24.20;70.70;;;;;;6191165;28;83412;-60
2023/06/09 05:52:36;;;;;;;19.25;13.40;;;24.20;70.70;;;;;;6184445;28;83090;-60
2023/06/09 05:55:36;;;;;;;24.83;15.85;;;24.20;71.00;;;;;;6194944;28;83573;-63
2023/06/09 05:58:37;;;;;;;22.95;14.57;;;24.20;71.10;;;;;;6187279;28;83211;-56
2023/06/09 06:01:37;;;;;;;23.15;16.02;;;24.20;70.90;;;;;;6195899;28;83053;-64
2023/06/09 06:04:38;;;;;;;22.38;15.90;;;24.10;72.10;;;;;;6193050;28;84060;-63
2023/06/09 06:07:38;;;;;;;21.33;14.75;;;24.10;72.10;;;;;;6172901;28;83247;-62
2023/06/09 06:10:39;;;;;;;20.85;15.30;;;24.00;72.20;;;;;;6188041;28;83389;-62
2023/06/09 06:13:39;;;;;;;29.95;18.58;;;24.00;72.00;;;;;;6174873;28;83049;-65
2023/06/09 06:16:40;;;;;;;34.03;18.25;;;24.00;72.60;;;;;;6197728;28;83479;-64
2023/06/09 06:19:40;;;;;;;23.77;16.92;;;23.90;72.80;;;;;;6197983;28;83713;-64
2023/06/09 06:22:44;;;;;;;30.17;17.38;;;23.90;73.20;;;;;;6195858;28;83100;-62
2023/06/09 06:25:45;;;;;;;23.98;15.88;;;23.90;73.00;;;;;;6162680;28;84363;-65
2023/06/09 06:28:45;;;;;;;24.00;15.38;;;23.90;72.90;;;;;;6171019;28;84627;-65
2023/06/09 06:31:48;;;;;;;22.75;14.57;;;23.90;72.90;;;;;;6166295;28;86002;-66
2023/06/09 06:34:48;;;;;;;21.80;13.75;;;24.00;72.70;;;;;;6163735;28;83599;-65
2023/06/09 06:37:52;;;;;;;20.25;13.10;;;24.00;72.60;;;;;;6169414;28;86433;-65
2023/06/09 06:40:53;;;;;;;19.75;14.23;;;24.00;72.50;;;;;;6166854;28;84339;-62
2023/06/09 06:43:53;;;;;;;15.82;12.43;;;24.00;72.60;;;;;;6173643;28;84032;-64
2023/06/09 06:46:54;;;;;;;18.40;13.25;;;24.00;72.40;;;;;;6172590;28;83948;-62
2023/06/09 06:49:54;;;;;;;17.80;12.43;;;24.00;72.50;;;;;;6170844;28;84564;-61
2023/06/09 06:52:55;;;;;;;25.05;13.32;;;24.00;72.40;;;;;;6166106;28;84365;-61
2023/06/09 06:55:55;;;;;;;18.52;13.60;;;24.00;72.30;;;;;;6172007;28;84704;-62
2023/06/09 06:58:56;;;;;;;18.17;13.27;;;24.10;72.20;;;;;;6172178;28;83893;-66
2023/06/09 07:01:56;;;;;;;16.38;12.73;;;24.10;72.20;;;;;;6173988;28;86158;-64
2023/06/09 07:04:59;;;;;;;19.30;13.20;;;24.10;72.50;;;;;;6168831;28;84349;-63
2023/06/09 07:07:59;;;;;;;19.75;14.13;;;24.10;72.70;;;;;;6190414;28;88378;-62
2023/06/09 07:11:00;;;;;;;22.83;16.80;;;24.10;72.80;;;;;;6180796;28;82987;-64
2023/06/09 07:14:00;;;;;;;19.85;14.43;;;24.10;72.80;;;;;;6193763;28;83026;-69
2023/06/09 07:17:01;;;;;;;23.17;16.30;;;24.10;72.80;;;;;;6186302;28;85471;-63
2023/06/09 07:20:02;;;;;;;23.10;16.17;;;24.10;72.90;;;;;;6198690;28;84775;-61
2023/06/09 07:23:02;;;;;;;21.10;16.08;;;24.00;72.90;;;;;;6185004;28;83078;-67
2023/06/09 07:26:04;;;;;;;21.50;14.70;;;24.10;72.70;;;;;;6185183;28;85956;-67
2023/06/09 07:29:05;;;;;;;18.45;14.20;;;24.00;72.60;;;;;;6189108;28;83055;-65
2023/06/09 07:32:05;;;;;;;19.42;13.70;;;24.10;72.40;;;;;;6198151;28;83508;-69
2023/06/09 07:35:06;;;;;;;18.83;12.98;;;24.10;72.20;;;;;;6199247;28;84076;-66
2023/06/09 07:38:08;;;;;;;13.63;11.25;;;24.20;72.10;;;;;;6177635;28;83096;-66
2023/06/09 07:41:08;;;;;;;19.23;12.48;;;24.20;71.90;;;;;;6184808;28;86066;-67
2023/06/09 07:44:09;;;;;;;18.35;12.55;;;24.30;71.90;;;;;;6190323;28;84961;-67
2023/06/09 07:47:10;;;;;;;14.73;11.00;;;24.20;71.50;;;;;;6184991;28;83053;-67
2023/06/09 07:50:10;;;;;;;13.13;10.73;;;24.30;71.50;;;;;;6180298;28;85111;-67
2023/06/09 07:53:11;;;;;;;10.95;9.35;;;24.30;71.40;;;;;;6180915;28;83006;-67
2023/06/09 07:56:11;;;;;;;12.38;9.60;;;24.30;71.10;;;;;;6183457;28;84055;-69
2023/06/09 07:59:12;;;;;;;13.80;9.02;;;24.30;71.00;;;;;;6184696;28;80380;-69
2023/06/09 08:02:12;;;;;;;13.90;10.25;;;24.30;70.80;;;;;;6202288;28;80351;-68
2023/06/09 08:05:13;;;;;;;14.55;9.55;;;24.40;70.70;;;;;;6200876;28;82971;-67
2023/06/09 08:08:14;;;;;;;12.38;10.55;;;24.40;70.50;;;;;;6204479;28;83499;-67
2023/06/09 08:11:16;;;;;;;12.35;9.65;;;24.40;70.40;;;;;;6201709;28;83034;-68
2023/06/09 08:14:17;;;;;;;13.50;10.73;;;24.40;70.20;;;;;;6187504;28;82738;-67
2023/06/09 08:17:18;;;;;;;19.20;9.98;;;24.50;70.10;;;;;;6181712;28;83167;-66
2023/06/09 08:20:18;;;;;;;14.57;11.18;;;24.50;69.90;;;;;;6201702;28;83505;-66
2023/06/09 08:23:22;;;;;;;13.13;10.02;;;24.50;69.80;;;;;;6201205;28;83220;-67
2023/06/09 08:26:22;;;;;;;13.55;9.70;;;24.50;69.70;;;;;;6199998;28;83588;-66
2023/06/09 08:29:23;;;;;;;12.45;9.73;;;24.60;69.70;;;;;;6204811;28;81856;-62
2023/06/09 08:32:23;;;;;;;11.23;9.02;;;24.60;69.40;;;;;;6203881;28;80401;-62
2023/06/09 08:35:25;;;;;;;12.45;9.88;;;24.60;69.40;;;;;;6204580;28;82150;-61
2023/06/09 08:38:26;;;;;;;15.00;10.93;;;24.60;69.20;;;;;;6203518;28;80638;-60
2023/06/09 08:41:32;;;;;;;10.65;9.02;;;24.70;69.00;;;;;;6198455;28;87525;-61
2023/06/09 08:44:32;;;;;;;13.32;10.68;;;24.70;69.00;;;;;;6202862;28;81792;-62
2023/06/09 08:47:33;;;;;;;14.73;10.18;;;24.70;68.90;;;;;;6198822;28;83098;-62
2023/06/09 08:50:40;;;;;;;12.85;10.23;;;24.70;68.90;;;;;;6198848;28;82809;-63
2023/06/09 08:53:41;;;;;;;13.50;10.02;;;24.70;68.80;;;;;;6200198;28;83477;-61
2023/06/09 08:56:42;;;;;;;12.98;9.82;;;24.70;68.60;;;;;;6199705;28;82881;-61
2023/06/09 08:59:44;;;;;;;11.60;9.63;;;24.70;68.40;;;;;;6203997;28;82992;-63
2023/06/09 09:02:44;;;;;;;13.35;10.55;;;24.70;68.30;;;;;;6203995;28;80380;-62
2023/06/09 09:05:45;;;;;;;11.93;9.18;;;24.70;68.30;;;;;;6200005;28;82684;-62
2023/06/09 09:08:45;;;;;;;16.08;10.68;;;24.70;68.20;;;;;;6195718;28;82981;-61
2023/06/09 09:11:46;;;;;;;14.73;10.35;;;24.70;68.20;;;;;;6178997;28;82815;-62
2023/06/09 09:14:47;;;;;;;13.82;10.43;;;24.70;68.30;;;;;;6186263;28;82871;-63
2023/06/09 09:17:48;;;;;;;14.48;10.10;;;24.70;68.00;;;;;;6188162;28;85349;-62
2023/06/09 09:20:48;;;;;;;11.38;9.63;;;24.70;68.00;;;;;;6197121;28;83987;-62
2023/06/09 09:23:49;;;;;;;12.80;10.43;;;24.70;67.90;;;;;;6187455;28;81773;-62
2023/06/09 09:26:50;;;;;;;13.82;10.10;;;24.80;67.80;;;;;;6196126;28;83131;-62
2023/06/09 09:29:50;;;;;;;12.60;10.18;;;24.80;67.70;;;;;;6177547;28;83240;-63
2023/06/09 09:32:51;;;;;;;12.80;8.98;;;24.80;67.60;;;;;;6178407;28;83226;-62
2023/06/09 09:35:52;;;;;;;12.10;9.57;;;24.90;67.40;;;;;;6192578;28;81864;-62
2023/06/09 09:38:53;;;;;;;11.68;9.40;;;24.90;67.40;;;;;;6196296;28;80837;-64
2023/06/09 09:41:53;;;;;;;10.95;9.73;;;24.90;67.20;;;;;;6185875;28;80302;-63
2023/06/09 09:44:54;;;;;;;11.27;9.95;;;24.90;67.10;;;;;;6202458;28;80435;-63
2023/06/09 09:47:55;;;;;;;13.07;10.20;;;24.90;67.10;;;;;;6179286;28;82937;-63
2023/06/09 09:50:55;;;;;;;10.90;9.68;;;24.90;67.00;;;;;;6198925;28;82830;-64
2023/06/09 09:53:56;;;;;;;14.88;9.63;;;24.90;67.00;;;;;;6183643;28;84935;-65
2023/06/09 09:56:56;;;;;;;10.75;8.77;;;24.90;67.00;;;;;;6203293;28;80535;-63
2023/06/09 09:59:59;;;;;;;11.48;8.80;;;24.90;67.00;;;;;;6202743;28;80509;-63
2023/06/09 10:03:00;;;;;;;10.50;9.07;;;25.00;66.80;;;;;;6202602;28;80517;-63
2023/06/09 10:06:01;;;;;;;12.07;9.40;;;25.00;66.70;;;;;;6201315;28;80464;-63
2023/06/09 10:09:03;;;;;;;9.95;8.63;;;25.00;66.50;;;;;;6202821;28;80589;-64
2023/06/09 10:12:04;;;;;;;11.13;9.80;;;25.10;66.50;;;;;;6179171;28;80275;-63
2023/06/09 10:15:04;;;;;;;10.27;8.40;;;25.10;66.30;;;;;;6190058;28;80818;-64
2023/06/09 10:18:05;;;;;;;9.95;8.85;;;25.10;66.30;;;;;;6203061;28;80719;-65
2023/06/09 10:21:05;;;;;;;10.40;9.07;;;25.10;66.30;;;;;;6184595;28;82008;-63
2023/06/09 10:24:06;;;;;;;10.10;8.88;;;25.10;66.20;;;;;;6202970;28;80584;-63
2023/06/09 10:27:07;;;;;;;10.18;8.70;;;25.10;66.10;;;;;;6202231;28;80243;-62
2023/06/09 10:30:08;;;;;;;10.60;9.10;;;25.10;66.00;;;;;;6203465;28;80242;-62
2023/06/09 10:33:09;;;;;;;9.65;8.48;;;25.10;66.60;;;;;;6191935;28;81420;-64
2023/06/09 10:36:10;;;;;;;9.40;8.40;;;25.10;65.90;;;;;;6191361;28;81737;-62
2023/06/09 10:39:10;;;;;;;10.32;9.23;;;25.10;65.90;;;;;;6193762;28;84270;-66
2023/06/09 10:42:11;;;;;;;11.13;9.32;;;25.10;65.80;;;;;;6184781;28;80679;-67
2023/06/09 10:45:11;;;;;;;9.50;8.40;;;25.10;65.70;;;;;;6178804;28;80597;-68
2023/06/09 10:48:12;;;;;;;10.05;8.82;;;25.10;65.70;;;;;;6193859;28;80283;-68
2023/06/09 10:51:12;;;;;;;8.38;7.32;;;25.10;65.60;;;;;;6201979;28;81207;-65
2023/06/09 10:54:14;;;;;;;10.25;9.05;;;25.10;65.50;;;;;;6193961;28;80307;-66
2023/06/09 10:57:15;;;;;;;12.20;8.77;;;25.10;65.50;;;;;;6202390;28;80535;-66
2023/06/09 11:00:15;;;;;;;10.15;8.40;;;25.10;65.60;;;;;;6188084;28;84789;-63
2023/06/09 11:03:16;;;;;;;13.50;8.35;;;25.10;65.60;;;;;;6191677;28;82002;-73
2023/06/09 11:06:17;;;;;;;16.50;9.32;;;25.10;65.90;;;;;;6190950;28;80866;-71
2023/06/09 11:09:17;;;;;;;9.63;8.23;;;25.00;65.60;;;;;;6190646;28;82574;-70
2023/06/09 11:12:18;;;;;;;8.75;7.78;;;25.00;65.10;;;;;;6195490;28;81450;-69
2023/06/09 11:15:18;;;;;;;12.38;7.93;;;25.00;64.80;;;;;;6195238;28;83170;-60
2023/06/09 11:18:19;;;;;;;9.43;8.43;;;25.00;64.50;;;;;;6199249;28;80889;-63
2023/06/09 11:21:20;;;;;;;14.13;8.02;;;25.00;65.20;;;;;;6196200;28;80593;-62
2023/06/09 11:24:21;;;;;;;11.23;8.10;;;25.00;65.10;;;;;;6189173;28;84055;-64
2023/06/09 11:27:22;;;;;;;11.02;8.52;;;25.00;65.10;;;;;;6143334;28;81490;-64
2023/06/09 11:30:23;;;;;;;9.25;7.85;;;25.00;65.10;;;;;;6168638;28;81533;-62
2023/06/09 11:33:24;;;;;;;12.48;9.05;;;25.00;64.90;;;;;;6175721;28;81779;-64
2023/06/09 11:36:25;;;;;;;9.77;8.60;;;25.00;65.00;;;;;;6154288;28;83435;-65
2023/06/09 11:39:25;;;;;;;12.55;7.63;;;24.90;65.00;;;;;;6174467;28;81846;-62
2023/06/09 11:42:26;;;;;;;12.82;8.68;;;24.90;65.20;;;;;;6168055;28;82642;-61
2023/06/09 11:45:27;;;;;;;9.25;8.27;;;25.00;65.20;;;;;;6176451;28;81273;-62
2023/06/09 11:48:27;;;;;;;12.38;8.57;;;25.00;65.40;;;;;;6169854;28;81585;-61
2023/06/09 11:51:28;;;;;;;11.20;9.30;;;25.00;65.40;;;;;;6176742;28;81569;-59
2023/06/09 11:54:28;;;;;;;10.52;9.40;;;25.00;65.60;;;;;;6170153;28;80683;-62
2023/06/09 11:57:29;;;;;;;10.48;9.38;;;24.90;65.90;;;;;;6175771;28;81532;-62
2023/06/09 12:00:29;;;;;;;13.00;9.88;;;24.90;66.80;;;;;;6168234;28;83377;-61
2023/06/09 12:03:36;;;;;;;14.30;10.88;;;24.90;66.60;;;;;;6171496;28;81608;-60
2023/06/09 12:06:37;;;;;;;13.90;10.15;;;24.90;66.40;;;;;;6171095;28;84442;-60
2023/06/09 12:09:37;;;;;;;15.35;10.93;;;25.00;66.50;;;;;;6176278;28;84207;-62
2023/06/09 12:12:38;;;;;;;14.38;10.15;;;24.90;66.90;;;;;;6168361;28;83528;-60
2023/06/09 12:15:40;;;;;;;12.43;11.13;;;24.70;67.10;;;;;;6171169;28;83548;-60
2023/06/09 12:18:41;;;;;;;14.90;10.90;;;24.70;67.10;;;;;;6172202;28;84614;-62
2023/06/09 12:21:41;;;;;;;11.88;10.57;;;24.80;66.80;;;;;;6177499;28;83941;-61
2023/06/09 12:24:43;;;;;;;13.50;11.02;;;24.70;66.90;;;;;;6168445;28;83702;-61
2023/06/09 12:27:43;;;;;;;14.93;12.15;;;24.70;66.50;;;;;;6181279;28;84004;-63
2023/06/09 12:30:47;;;;;;;14.20;12.27;;;24.80;66.90;;;;;;6179555;28;84158;-62
2023/06/09 12:33:48;;;;;;;14.68;12.38;;;24.80;67.10;;;;;;6168975;28;84326;-62
2023/06/09 12:36:49;;;;;;;15.05;12.35;;;24.80;67.70;;;;;;6165815;28;84774;-61
2023/06/09 12:39:49;;;;;;;16.73;12.93;;;24.70;67.30;;;;;;6191322;28;84342;-61
2023/06/09 12:42:50;;;;;;;15.88;12.95;;;24.60;67.60;;;;;;6180313;28;83379;-63
2023/06/09 12:45:50;;;;;;;16.88;14.07;;;24.70;67.90;;;;;;6188359;28;83530;-63
2023/06/09 12:48:51;;;;;;;23.17;16.38;;;24.70;68.10;;;;;;6192406;28;83707;-66
2023/06/09 12:51:52;;;;;;;17.75;15.85;;;24.60;68.10;;;;;;6186794;28;83107;-62
2023/06/09 12:54:52;;;;;;;18.48;16.15;;;24.50;68.10;;;;;;6187716;28;83177;-67
2023/06/09 12:57:53;;;;;;;24.08;17.92;;;24.40;68.30;;;;;;6175495;28;86012;-63
2023/06/09 13:00:53;;;;;;;23.95;17.60;;;24.30;69.00;;;;;;6195822;28;83393;-63
2023/06/09 13:03:54;;;;;;;23.40;16.55;;;24.40;69.10;;;;;;6201462;28;83034;-63
2023/06/09 13:06:55;;;;;;;23.15;17.42;;;24.40;69.20;;;;;;6198289;28;84650;-61
2023/06/09 13:09:55;;;;;;;23.80;18.42;;;24.50;69.00;;;;;;6197564;28;83126;-60
2023/06/09 13:12:56;;;;;;;26.92;19.73;;;24.50;68.70;;;;;;6198265;28;83314;-60
2023/06/09 13:15:56;;;;;;;23.35;17.38;;;24.50;68.50;;;;;;6198769;28;83888;-60
2023/06/09 13:18:57;;;;;;;27.77;18.02;;;24.40;68.60;;;;;;6180467;28;85692;-62
2023/06/09 13:21:57;;;;;;;27.70;20.38;;;24.50;68.80;;;;;;6182175;28;84542;-59
2023/06/09 13:24:58;;;;;;;26.88;19.02;;;24.50;69.00;;;;;;6200074;28;82962;-67
2023/06/09 13:27:58;;;;;;;27.70;17.42;;;24.60;69.00;;;;;;6198847;28;83272;-67
2023/06/09 13:30:59;;;;;;;20.50;15.45;;;24.50;69.50;;;;;;6199710;28;82995;-65
2023/06/09 13:33:59;;;;;;;23.02;15.20;;;24.60;69.50;;;;;;6192133;28;89440;-66
2023/06/09 13:37:00;;;;;;;17.27;13.48;;;24.60;69.80;;;;;;6198357;28;83148;-66
2023/06/09 13:40:00;;;;;;;24.13;12.90;;;24.60;69.50;;;;;;6188101;28;83250;-67
2023/06/09 13:43:01;;;;;;;17.38;13.30;;;24.60;69.40;;;;;;6175790;28;87882;-66
2023/06/09 13:46:01;;;;;;;15.73;12.45;;;24.60;69.50;;;;;;6189050;28;83118;-64
2023/06/09 13:49:03;;;;;;;20.63;13.18;;;24.50;69.40;;;;;;6188935;28;83165;-66
2023/06/09 13:52:04;;;;;;;26.30;13.60;;;24.60;69.40;;;;;;6192862;28;83946;-66
2023/06/09 13:55:04;;;;;;;16.63;13.45;;;24.60;69.40;;;;;;6192701;28;83418;-62
2023/06/09 13:58:05;;;;;;;18.42;13.27;;;24.60;69.40;;;;;;6180700;28;82972;-65
2023/06/09 14:01:05;;;;;;;18.17;13.25;;;24.60;69.20;;;;;;6190028;28;83945;-59
2023/06/09 14:04:06;;;;;;;15.77;12.90;;;24.60;69.30;;;;;;6186384;28;85921;-63
2023/06/09 14:07:06;;;;;;;17.80;12.38;;;24.60;69.50;;;;;;6187885;28;83487;-64
2023/06/09 14:10:07;;;;;;;21.25;12.98;;;24.60;69.30;;;;;;6185916;28;84660;-65
2023/06/09 14:13:07;;;;;;;17.02;12.43;;;24.60;69.80;;;;;;6194938;28;83426;-62
2023/06/09 14:16:08;;;;;;;16.88;11.90;;;24.60;69.60;;;;;;6193911;28;83826;-63
2023/06/09 14:19:09;;;;;;;20.10;12.00;;;24.60;69.30;;;;;;6194789;28;83268;-65
2023/06/09 14:22:09;;;;;;;14.27;11.13;;;24.60;69.10;;;;;;6197027;28;83573;-64
2023/06/09 14:25:10;;;;;;;11.25;9.80;;;24.70;68.90;;;;;;6199724;28;87091;-65
2023/06/09 14:28:11;;;;;;;16.13;11.02;;;24.70;68.80;;;;;;6200011;28;82978;-63
2023/06/09 14:31:12;;;;;;;13.25;10.02;;;24.70;68.50;;;;;;6196783;28;82965;-66
2023/06/09 14:34:12;;;;;;;13.70;8.90;;;24.70;68.40;;;;;;6196143;28;83198;-62
2023/06/09 14:37:13;;;;;;;12.93;9.55;;;24.70;68.20;;;;;;6182014;28;83500;-73
2023/06/09 14:40:13;;;;;;;13.60;10.35;;;24.70;68.00;;;;;;6192712;28;80825;-73
2023/06/09 14:43:14;;;;;;;11.00;8.68;;;24.70;67.90;;;;;;6185008;28;83014;-72
2023/06/09 14:46:15;;;;;;;11.70;9.00;;;24.70;67.70;;;;;;6177995;28;81673;-71
2023/06/09 14:49:15;;;;;;;13.27;8.70;;;24.70;67.60;;;;;;6191447;28;80597;-70
2023/06/09 14:52:16;;;;;;;11.73;8.32;;;24.80;67.40;;;;;;6177907;28;80496;-69
2023/06/09 14:55:19;;;;;;;12.45;7.90;;;24.80;67.30;;;;;;6184840;28;81661;-70
2023/06/09 14:58:20;;;;;;;9.95;7.95;;;24.80;67.10;;;;;;6190865;28;80548;-70
2023/06/09 15:01:20;;;;;;;12.75;7.82;;;24.80;67.00;;;;;;6201970;28;80353;-70
2023/06/09 15:04:21;;;;;;;13.48;8.30;;;24.80;66.70;;;;;;6202235;28;81092;-70
2023/06/09 15:07:21;;;;;;;8.82;7.00;;;24.80;66.80;;;;;;6200697;28;80109;-69
2023/06/09 15:10:22;;;;;;;12.40;8.20;;;24.80;66.70;;;;;;6191895;28;81053;-71
2023/06/09 15:13:22;;;;;;;9.18;7.15;;;24.80;66.70;;;;;;6201682;28;80442;-70
2023/06/09 15:16:23;;;;;;;11.82;7.10;;;24.80;66.60;;;;;;6201831;28;80971;-69
2023/06/09 15:19:23;;;;;;;9.68;6.95;;;24.80;66.60;;;;;;6201165;28;80167;-71
2023/06/09 15:22:24;;;;;;;10.48;6.82;;;24.80;66.50;;;;;;6185671;28;80891;-69